KDVT/DVT METAR and TAF weather

Enter ICAO airport designator
Station Type Date Time Source
KDVT METAR 2021/05/14 03:53 UTC NOAA

KDVT 140353Z 30007KT 10SM CLR 29/M06 A2986 RMK AO2 SLP087 T02941056


Station Type Date Time Source
KDVT Decoded METAR 2021/05/14 03:53 UTC NOAA

PHOENIX-DEER VALLEY MUN, AZ, United States (KDVT) 33-41N 112-04W 443M
May 13, 2021 - 11:53 PM EDT / 2021.05.14 0353 UTC
Wind: from the WNW (300 degrees) at 8 MPH (7 KT):0
Visibility: 10 mile(s):0
Sky conditions: clear
Temperature: 84.9 F (29.4 C)
Dew Point: 21.9 F (-5.6 C)
Relative Humidity: 9%
Pressure (altimeter): 29.86 in. Hg (1011 hPa)
ob: KDVT 140353Z 30007KT 10SM CLR 29/M06 A2986 RMK AO2 SLP087 T02941056
cycle: 4

Station Type Date Time Source
KDVT TAF 2021/05/13 18:24 UTC NOAA

TAF KDVT 131722Z 1318/1418 21007KT P6SM SKC
FM140500 VRB04KT P6SM SKC

Example: see airport list